sensor_id;sensor_type;location;lat;lon;timestamp;pressure;altitude;pressure_sealevel;temperature;humidity
17450;BME280;8842;51.244;7.102;2023-12-20T00:01:39;99293.44;;;8.07;100.00
17450;BME280;8842;51.244;7.102;2023-12-20T00:06:44;99289.76;;;8.09;100.00
17450;BME280;8842;51.244;7.102;2023-12-20T00:11:48;99290.54;;;8.04;100.00
17450;BME280;8842;51.244;7.102;2023-12-20T00:16:52;99297.05;;;8.06;100.00
17450;BME280;8842;51.244;7.102;2023-12-20T00:21:56;99302.13;;;7.84;100.00
17450;BME280;8842;51.244;7.102;2023-12-20T00:27:00;99300.44;;;7.83;100.00
17450;BME280;8842;51.244;7.102;2023-12-20T00:32:05;99287.33;;;7.81;100.00
17450;BME280;8842;51.244;7.102;2023-12-20T00:37:09;99296.69;;;7.80;100.00
17450;BME280;8842;51.244;7.102;2023-12-20T00:42:13;99301.17;;;7.72;100.00
17450;BME280;8842;51.244;7.102;2023-12-20T00:47:18;99311.74;;;7.72;100.00
17450;BME280;8842;51.244;7.102;2023-12-20T00:52:23;99311.09;;;7.69;100.00
17450;BME280;8842;51.244;7.102;2023-12-20T01:02:41;99327.91;;;7.68;100.00
17450;BME280;8842;51.244;7.102;2023-12-20T01:07:45;99333.03;;;7.64;100.00
17450;BME280;8842;51.244;7.102;2023-12-20T01:12:49;99325.58;;;7.63;100.00
17450;BME280;8842;51.244;7.102;2023-12-20T01:17:54;99333.66;;;7.67;100.00
17450;BME280;8842;51.244;7.102;2023-12-20T01:23:00;99316.27;;;7.58;100.00
17450;BME280;8842;51.244;7.102;2023-12-20T01:28:04;99305.95;;;7.60;100.00
17450;BME280;8842;51.244;7.102;2023-12-20T01:33:09;99312.10;;;7.61;100.00
17450;BME280;8842;51.244;7.102;2023-12-20T01:38:13;99317.80;;;7.55;100.00
17450;BME280;8842;51.244;7.102;2023-12-20T01:43:17;99332.33;;;7.55;100.00
17450;BME280;8842;51.244;7.102;2023-12-20T01:48:21;99338.42;;;7.43;100.00
17450;BME280;8842;51.244;7.102;2023-12-20T01:53:25;99351.59;;;7.50;100.00
17450;BME280;8842;51.244;7.102;2023-12-20T01:58:31;99342.75;;;7.44;100.00
17450;BME280;8842;51.244;7.102;2023-12-20T02:03:36;99338.13;;;7.40;100.00
17450;BME280;8842;51.244;7.102;2023-12-20T02:08:40;99344.94;;;7.37;100.00
17450;BME280;8842;51.244;7.102;2023-12-20T02:13:44;99339.69;;;7.30;100.00
17450;BME280;8842;51.244;7.102;2023-12-20T02:24:00;99345.14;;;7.15;100.00
17450;BME280;8842;51.244;7.102;2023-12-20T02:29:04;99346.84;;;7.02;100.00
17450;BME280;8842;51.244;7.102;2023-12-20T02:34:08;99362.55;;;6.91;100.00
17450;BME280;8842;51.244;7.102;2023-12-20T02:39:12;99352.77;;;6.79;100.00
17450;BME280;8842;51.244;7.102;2023-12-20T02:44:17;99357.77;;;6.76;100.00
17450;BME280;8842;51.244;7.102;2023-12-20T02:49:21;99359.75;;;6.73;100.00
17450;BME280;8842;51.244;7.102;2023-12-20T02:54:25;99368.22;;;6.71;100.00
17450;BME280;8842;51.244;7.102;2023-12-20T02:59:29;99359.77;;;6.66;100.00
17450;BME280;8842;51.244;7.102;2023-12-20T03:04:33;99356.36;;;6.64;100.00
17450;BME280;8842;51.244;7.102;2023-12-20T03:09:37;99361.64;;;6.64;100.00
17450;BME280;8842;51.244;7.102;2023-12-20T03:19:55;99356.00;;;6.63;100.00
17450;BME280;8842;51.244;7.102;2023-12-20T03:30:12;99341.39;;;6.50;100.00
17450;BME280;8842;51.244;7.102;2023-12-20T03:35:16;99345.81;;;6.43;100.00
17450;BME280;8842;51.244;7.102;2023-12-20T03:45:32;99341.49;;;6.42;100.00
17450;BME280;8842;51.244;7.102;2023-12-20T03:50:36;99342.45;;;6.41;100.00
17450;BME280;8842;51.244;7.102;2023-12-20T04:00:52;99344.69;;;6.40;100.00
17450;BME280;8842;51.244;7.102;2023-12-20T04:11:07;99335.66;;;6.30;100.00
17450;BME280;8842;51.244;7.102;2023-12-20T04:16:11;99337.16;;;6.27;100.00
17450;BME280;8842;51.244;7.102;2023-12-20T04:21:16;99346.39;;;6.27;100.00
17450;BME280;8842;51.244;7.102;2023-12-20T04:31:40;99342.52;;;6.32;100.00
17450;BME280;8842;51.244;7.102;2023-12-20T04:36:44;99339.63;;;6.23;100.00
17450;BME280;8842;51.244;7.102;2023-12-20T04:41:49;99339.43;;;6.26;100.00
17450;BME280;8842;51.244;7.102;2023-12-20T04:52:07;99351.84;;;6.31;100.00
17450;BME280;8842;51.244;7.102;2023-12-20T04:57:12;99347.34;;;6.26;100.00
17450;BME280;8842;51.244;7.102;2023-12-20T05:07:27;99352.04;;;6.13;100.00
17450;BME280;8842;51.244;7.102;2023-12-20T05:12:32;99353.94;;;6.19;100.00
17450;BME280;8842;51.244;7.102;2023-12-20T05:22:47;99362.03;;;6.16;100.00
17450;BME280;8842;51.244;7.102;2023-12-20T05:27:51;99355.41;;;6.01;100.00
17450;BME280;8842;51.244;7.102;2023-12-20T05:32:55;99346.46;;;6.04;100.00
17450;BME280;8842;51.244;7.102;2023-12-20T05:38:00;99353.64;;;6.09;100.00
17450;BME280;8842;51.244;7.102;2023-12-20T05:48:20;99356.94;;;6.20;100.00
17450;BME280;8842;51.244;7.102;2023-12-20T05:58:39;99343.27;;;6.13;100.00
17450;BME280;8842;51.244;7.102;2023-12-20T06:03:43;99356.00;;;6.06;100.00
17450;BME280;8842;51.244;7.102;2023-12-20T06:08:47;99345.45;;;6.06;100.00
17450;BME280;8842;51.244;7.102;2023-12-20T06:13:51;99351.73;;;6.04;100.00
17450;BME280;8842;51.244;7.102;2023-12-20T06:18:56;99349.95;;;6.04;100.00
17450;BME280;8842;51.244;7.102;2023-12-20T06:24:01;99353.23;;;6.01;100.00
17450;BME280;8842;51.244;7.102;2023-12-20T06:29:05;99364.82;;;5.98;100.00
17450;BME280;8842;51.244;7.102;2023-12-20T06:34:09;99369.36;;;6.03;100.00
17450;BME280;8842;51.244;7.102;2023-12-20T06:39:14;99358.45;;;6.09;100.00
17450;BME280;8842;51.244;7.102;2023-12-20T06:44:18;99360.31;;;6.07;100.00
17450;BME280;8842;51.244;7.102;2023-12-20T06:49:22;99358.63;;;6.06;100.00
17450;BME280;8842;51.244;7.102;2023-12-20T06:54:26;99355.59;;;6.05;100.00
17450;BME280;8842;51.244;7.102;2023-12-20T06:59:30;99353.64;;;6.02;100.00
17450;BME280;8842;51.244;7.102;2023-12-20T07:04:34;99360.19;;;5.95;100.00
17450;BME280;8842;51.244;7.102;2023-12-20T07:09:38;99371.05;;;6.04;100.00
17450;BME280;8842;51.244;7.102;2023-12-20T07:19:54;99367.40;;;6.14;100.00
17450;BME280;8842;51.244;7.102;2023-12-20T07:24:58;99356.45;;;6.13;100.00
17450;BME280;8842;51.244;7.102;2023-12-20T07:35:14;99354.95;;;6.16;100.00
17450;BME280;8842;51.244;7.102;2023-12-20T07:40:18;99356.77;;;6.16;100.00
17450;BME280;8842;51.244;7.102;2023-12-20T07:45:23;99359.95;;;6.13;100.00
17450;BME280;8842;51.244;7.102;2023-12-20T07:50:27;99357.50;;;6.18;100.00
17450;BME280;8842;51.244;7.102;2023-12-20T07:55:31;99363.53;;;6.20;100.00
17450;BME280;8842;51.244;7.102;2023-12-20T08:00:35;99355.35;;;6.17;100.00
17450;BME280;8842;51.244;7.102;2023-12-20T08:05:39;99367.12;;;6.26;100.00
17450;BME280;8842;51.244;7.102;2023-12-20T08:10:43;99368.89;;;6.25;100.00
17450;BME280;8842;51.244;7.102;2023-12-20T08:15:47;99354.48;;;6.31;100.00
17450;BME280;8842;51.244;7.102;2023-12-20T08:20:51;99360.34;;;6.29;100.00
17450;BME280;8842;51.244;7.102;2023-12-20T08:25:57;99357.80;;;6.27;100.00
17450;BME280;8842;51.244;7.102;2023-12-20T08:36:13;99361.73;;;6.41;100.00
17450;BME280;8842;51.244;7.102;2023-12-20T08:41:17;99363.05;;;6.41;100.00
17450;BME280;8842;51.244;7.102;2023-12-20T08:46:21;99364.66;;;6.37;100.00
17450;BME280;8842;51.244;7.102;2023-12-20T08:51:25;99375.78;;;6.42;100.00
17450;BME280;8842;51.244;7.102;2023-12-20T08:56:29;99375.13;;;6.31;100.00
17450;BME280;8842;51.244;7.102;2023-12-20T09:06:45;99379.18;;;6.51;100.00
17450;BME280;8842;51.244;7.102;2023-12-20T09:11:49;99377.02;;;6.36;100.00
17450;BME280;8842;51.244;7.102;2023-12-20T09:16:54;99366.93;;;6.36;100.00
17450;BME280;8842;51.244;7.102;2023-12-20T09:21:59;99362.59;;;6.42;100.00
17450;BME280;8842;51.244;7.102;2023-12-20T09:32:18;99367.50;;;6.48;100.00
17450;BME280;8842;51.244;7.102;2023-12-20T09:37:25;99359.78;;;6.38;100.00
17450;BME280;8842;51.244;7.102;2023-12-20T09:47:44;99356.11;;;6.54;100.00
17450;BME280;8842;51.244;7.102;2023-12-20T09:52:50;99357.99;;;6.45;100.00
17450;BME280;8842;51.244;7.102;2023-12-20T09:57:55;99358.53;;;6.50;100.00
17450;BME280;8842;51.244;7.102;2023-12-20T10:03:00;99361.66;;;6.50;100.00
17450;BME280;8842;51.244;7.102;2023-12-20T10:08:06;99363.53;;;6.55;100.00
17450;BME280;8842;51.244;7.102;2023-12-20T10:13:11;99356.38;;;6.57;100.00
17450;BME280;8842;51.244;7.102;2023-12-20T10:18:15;99359.45;;;6.63;100.00
17450;BME280;8842;51.244;7.102;2023-12-20T10:23:20;99359.78;;;6.59;100.00
17450;BME280;8842;51.244;7.102;2023-12-20T10:28:24;99362.42;;;6.59;100.00
17450;BME280;8842;51.244;7.102;2023-12-20T10:38:43;99328.00;;;6.53;100.00
17450;BME280;8842;51.244;7.102;2023-12-20T10:43:48;99329.05;;;6.51;100.00
17450;BME280;8842;51.244;7.102;2023-12-20T10:48:53;99331.50;;;6.54;100.00
17450;BME280;8842;51.244;7.102;2023-12-20T10:53:58;99316.80;;;6.57;100.00
17450;BME280;8842;51.244;7.102;2023-12-20T10:59:03;99316.25;;;6.45;100.00
17450;BME280;8842;51.244;7.102;2023-12-20T11:09:24;99309.25;;;6.58;100.00
17450;BME280;8842;51.244;7.102;2023-12-20T11:20:04;99326.09;;;6.69;100.00
17450;BME280;8842;51.244;7.102;2023-12-20T11:30:21;99318.30;;;6.61;100.00
17450;BME280;8842;51.244;7.102;2023-12-20T11:35:26;99307.33;;;6.74;100.00
17450;BME280;8842;51.244;7.102;2023-12-20T11:45:49;99285.48;;;6.72;100.00
17450;BME280;8842;51.244;7.102;2023-12-20T11:56:07;99294.52;;;6.68;100.00
17450;BME280;8842;51.244;7.102;2023-12-20T12:01:12;99290.84;;;6.77;100.00
17450;BME280;8842;51.244;7.102;2023-12-20T12:11:35;99273.80;;;6.62;100.00
17450;BME280;8842;51.244;7.102;2023-12-20T12:16:39;99276.98;;;6.74;100.00
17450;BME280;8842;51.244;7.102;2023-12-20T12:26:58;99256.98;;;6.77;100.00
17450;BME280;8842;51.244;7.102;2023-12-20T12:32:04;99252.70;;;6.69;100.00
17450;BME280;8842;51.244;7.102;2023-12-20T12:37:09;99256.06;;;6.71;100.00
17450;BME280;8842;51.244;7.102;2023-12-20T12:42:13;99250.49;;;6.82;100.00
17450;BME280;8842;51.244;7.102;2023-12-20T12:47:17;99260.75;;;6.80;100.00
17450;BME280;8842;51.244;7.102;2023-12-20T12:52:22;99259.66;;;6.70;100.00
17450;BME280;8842;51.244;7.102;2023-12-20T12:57:26;99237.09;;;6.78;100.00
17450;BME280;8842;51.244;7.102;2023-12-20T13:07:42;99230.03;;;6.79;100.00
17450;BME280;8842;51.244;7.102;2023-12-20T13:12:48;99231.95;;;6.70;100.00
17450;BME280;8842;51.244;7.102;2023-12-20T13:17:52;99212.72;;;6.68;100.00
17450;BME280;8842;51.244;7.102;2023-12-20T13:22:56;99198.20;;;6.75;100.00
17450;BME280;8842;51.244;7.102;2023-12-20T13:28:00;99194.51;;;6.77;100.00
17450;BME280;8842;51.244;7.102;2023-12-20T13:33:06;99176.63;;;6.68;100.00
17450;BME280;8842;51.244;7.102;2023-12-20T13:38:10;99181.15;;;6.73;100.00
17450;BME280;8842;51.244;7.102;2023-12-20T13:48:27;99168.17;;;6.83;100.00
17450;BME280;8842;51.244;7.102;2023-12-20T13:58:43;99165.02;;;6.71;100.00
17450;BME280;8842;51.244;7.102;2023-12-20T14:03:49;99164.77;;;6.68;100.00
17450;BME280;8842;51.244;7.102;2023-12-20T14:08:54;99151.01;;;6.70;100.00
17450;BME280;8842;51.244;7.102;2023-12-20T14:13:58;99142.49;;;6.72;100.00
17450;BME280;8842;51.244;7.102;2023-12-20T14:19:02;99149.55;;;6.79;100.00
17450;BME280;8842;51.244;7.102;2023-12-20T14:29:21;99156.23;;;6.77;100.00
17450;BME280;8842;51.244;7.102;2023-12-20T14:39:40;99137.81;;;6.90;100.00
17450;BME280;8842;51.244;7.102;2023-12-20T14:49:56;99144.20;;;6.93;100.00
17450;BME280;8842;51.244;7.102;2023-12-20T14:55:00;99138.63;;;6.90;100.00
17450;BME280;8842;51.244;7.102;2023-12-20T15:00:07;99154.92;;;6.97;100.00
17450;BME280;8842;51.244;7.102;2023-12-20T15:10:23;99153.66;;;7.02;100.00
17450;BME280;8842;51.244;7.102;2023-12-20T15:15:27;99154.61;;;7.01;100.00
17450;BME280;8842;51.244;7.102;2023-12-20T15:25:44;99146.17;;;7.09;100.00
17450;BME280;8842;51.244;7.102;2023-12-20T15:36:00;99135.97;;;7.10;100.00
17450;BME280;8842;51.244;7.102;2023-12-20T15:41:04;99139.58;;;7.09;100.00
17450;BME280;8842;51.244;7.102;2023-12-20T15:51:22;99130.84;;;7.14;100.00
17450;BME280;8842;51.244;7.102;2023-12-20T16:01:40;99131.54;;;7.23;100.00
17450;BME280;8842;51.244;7.102;2023-12-20T16:11:59;99138.37;;;7.32;100.00
17450;BME280;8842;51.244;7.102;2023-12-20T16:17:04;99130.77;;;7.28;100.00
17450;BME280;8842;51.244;7.102;2023-12-20T16:27:22;99107.74;;;7.30;100.00
17450;BME280;8842;51.244;7.102;2023-12-20T16:32:26;99115.69;;;7.23;100.00
17450;BME280;8842;51.244;7.102;2023-12-20T16:37:30;99104.98;;;7.19;100.00
17450;BME280;8842;51.244;7.102;2023-12-20T16:42:34;99106.56;;;7.34;100.00
17450;BME280;8842;51.244;7.102;2023-12-20T16:52:50;99111.42;;;7.40;100.00
17450;BME280;8842;51.244;7.102;2023-12-20T16:57:56;99109.71;;;7.39;100.00
17450;BME280;8842;51.244;7.102;2023-12-20T17:08:13;99106.97;;;7.40;100.00
17450;BME280;8842;51.244;7.102;2023-12-20T17:13:18;99108.78;;;7.40;100.00
17450;BME280;8842;51.244;7.102;2023-12-20T17:18:22;99090.19;;;7.41;100.00
17450;BME280;8842;51.244;7.102;2023-12-20T17:23:26;99088.37;;;7.42;100.00
17450;BME280;8842;51.244;7.102;2023-12-20T17:28:30;99085.90;;;7.33;100.00
17450;BME280;8842;51.244;7.102;2023-12-20T17:33:34;99066.88;;;7.41;100.00
17450;BME280;8842;51.244;7.102;2023-12-20T17:38:38;99054.13;;;7.40;100.00
17450;BME280;8842;51.244;7.102;2023-12-20T17:43:43;99054.41;;;7.43;100.00
17450;BME280;8842;51.244;7.102;2023-12-20T17:48:47;99045.38;;;7.40;100.00
17450;BME280;8842;51.244;7.102;2023-12-20T17:53:51;99052.23;;;7.42;100.00
17450;BME280;8842;51.244;7.102;2023-12-20T17:58:55;99031.52;;;7.49;100.00
17450;BME280;8842;51.244;7.102;2023-12-20T18:03:59;99033.77;;;7.48;100.00
17450;BME280;8842;51.244;7.102;2023-12-20T18:09:03;99026.95;;;7.51;100.00
17450;BME280;8842;51.244;7.102;2023-12-20T18:14:08;99013.25;;;7.46;100.00
17450;BME280;8842;51.244;7.102;2023-12-20T18:24:28;98990.27;;;7.59;100.00
17450;BME280;8842;51.244;7.102;2023-12-20T18:29:32;99006.70;;;7.57;100.00
17450;BME280;8842;51.244;7.102;2023-12-20T18:34:37;98990.13;;;7.55;100.00
17450;BME280;8842;51.244;7.102;2023-12-20T18:39:41;98989.20;;;7.61;100.00
17450;BME280;8842;51.244;7.102;2023-12-20T18:44:45;98983.09;;;7.61;100.00
17450;BME280;8842;51.244;7.102;2023-12-20T18:49:49;98965.97;;;7.54;100.00
17450;BME280;8842;51.244;7.102;2023-12-20T18:54:53;98959.66;;;7.62;100.00
17450;BME280;8842;51.244;7.102;2023-12-20T18:59:58;98949.87;;;7.75;100.00
17450;BME280;8842;51.244;7.102;2023-12-20T19:05:02;98939.70;;;7.81;100.00
17450;BME280;8842;51.244;7.102;2023-12-20T19:10:07;98926.95;;;7.81;100.00
17450;BME280;8842;51.244;7.102;2023-12-20T19:15:12;98936.95;;;7.83;100.00
17450;BME280;8842;51.244;7.102;2023-12-20T19:20:16;98930.80;;;7.82;100.00
17450;BME280;8842;51.244;7.102;2023-12-20T19:25:22;98917.83;;;7.85;100.00
17450;BME280;8842;51.244;7.102;2023-12-20T19:30:26;98916.44;;;7.92;100.00
17450;BME280;8842;51.244;7.102;2023-12-20T19:35:30;98904.03;;;7.87;100.00
17450;BME280;8842;51.244;7.102;2023-12-20T19:40:34;98891.32;;;7.92;100.00
17450;BME280;8842;51.244;7.102;2023-12-20T19:45:38;98900.70;;;7.96;100.00
17450;BME280;8842;51.244;7.102;2023-12-20T19:50:42;98890.36;;;7.98;100.00
17450;BME280;8842;51.244;7.102;2023-12-20T19:55:46;98880.30;;;8.09;100.00
17450;BME280;8842;51.244;7.102;2023-12-20T20:00:51;98872.13;;;8.06;100.00
17450;BME280;8842;51.244;7.102;2023-12-20T20:05:55;98866.45;;;8.00;100.00
17450;BME280;8842;51.244;7.102;2023-12-20T20:10:59;98861.39;;;7.97;100.00
17450;BME280;8842;51.244;7.102;2023-12-20T20:16:04;98848.05;;;7.93;100.00
17450;BME280;8842;51.244;7.102;2023-12-20T20:26:20;98836.08;;;8.05;100.00
17450;BME280;8842;51.244;7.102;2023-12-20T20:31:24;98832.69;;;8.03;100.00
17450;BME280;8842;51.244;7.102;2023-12-20T20:36:28;98820.56;;;8.01;100.00
17450;BME280;8842;51.244;7.102;2023-12-20T20:41:32;98790.16;;;8.01;100.00
17450;BME280;8842;51.244;7.102;2023-12-20T20:51:48;98799.05;;;8.11;100.00
17450;BME280;8842;51.244;7.102;2023-12-20T20:56:52;98795.91;;;8.06;100.00
17450;BME280;8842;51.244;7.102;2023-12-20T21:01:56;98804.81;;;8.10;100.00
17450;BME280;8842;51.244;7.102;2023-12-20T21:12:15;98793.02;;;8.14;100.00
17450;BME280;8842;51.244;7.102;2023-12-20T21:17:19;98790.62;;;8.11;100.00
17450;BME280;8842;51.244;7.102;2023-12-20T21:22:23;98785.33;;;8.11;100.00
17450;BME280;8842;51.244;7.102;2023-12-20T21:27:27;98778.60;;;8.07;100.00
17450;BME280;8842;51.244;7.102;2023-12-20T21:37:45;98767.08;;;8.14;100.00
17450;BME280;8842;51.244;7.102;2023-12-20T21:42:49;98762.73;;;8.13;100.00
17450;BME280;8842;51.244;7.102;2023-12-20T21:53:07;98748.06;;;8.14;100.00
17450;BME280;8842;51.244;7.102;2023-12-20T21:58:13;98740.16;;;8.20;100.00
17450;BME280;8842;51.244;7.102;2023-12-20T22:03:18;98728.23;;;8.14;100.00
17450;BME280;8842;51.244;7.102;2023-12-20T22:13:36;98718.85;;;8.16;100.00
17450;BME280;8842;51.244;7.102;2023-12-20T22:18:40;98704.69;;;8.17;100.00
17450;BME280;8842;51.244;7.102;2023-12-20T22:23:44;98710.33;;;8.18;100.00
17450;BME280;8842;51.244;7.102;2023-12-20T22:28:48;98695.19;;;8.20;100.00
17450;BME280;8842;51.244;7.102;2023-12-20T22:39:04;98676.81;;;8.24;100.00
17450;BME280;8842;51.244;7.102;2023-12-20T22:44:08;98680.31;;;8.25;100.00
17450;BME280;8842;51.244;7.102;2023-12-20T22:49:12;98711.19;;;8.30;100.00
17450;BME280;8842;51.244;7.102;2023-12-20T22:54:16;98695.07;;;8.22;100.00
17450;BME280;8842;51.244;7.102;2023-12-20T22:59:20;98699.30;;;8.24;100.00
17450;BME280;8842;51.244;7.102;2023-12-20T23:09:38;98686.30;;;8.38;100.00
17450;BME280;8842;51.244;7.102;2023-12-20T23:14:42;98679.07;;;8.34;100.00
17450;BME280;8842;51.244;7.102;2023-12-20T23:19:46;98661.18;;;8.32;100.00
17450;BME280;8842;51.244;7.102;2023-12-20T23:24:50;98661.63;;;8.37;100.00
17450;BME280;8842;51.244;7.102;2023-12-20T23:35:07;98660.39;;;8.52;100.00
17450;BME280;8842;51.244;7.102;2023-12-20T23:40:12;98646.94;;;8.44;100.00
17450;BME280;8842;51.244;7.102;2023-12-20T23:45:16;98630.81;;;8.47;100.00
17450;BME280;8842;51.244;7.102;2023-12-20T23:50:20;98619.03;;;8.46;100.00
17450;BME280;8842;51.244;7.102;2023-12-20T23:55:24;98613.99;;;8.48;100.00
